Vaasa, Finland

11:18 AM EEST on June 30, 2015 (GMT +0300)
Hulmi, Laihia | | Change Station
CLOSE
Current Station
Personal Weather Station
Location: Suomi,
Elevation: 33 ft
Nearby Weather Stations

Elev 33 ft 62.99 °N, 21.96 °E | Updated 3 minutes ago

Overcast
Overcast
62.8 °F
Feels Like 62.8 °F
N
1.0
Wind Variable Wind from NW
Gusts 0.0 mph

Today
High -- | Low -- °F
--% Chance of Precip.
Yesterday
High -- | Low -- °F
Precip. -- in
3:30 AM 11:42 PM
Waxing Gibbous, 96% visible
Pressure 29.89 in
Visibility 6.2 miles
Clouds Few 1200 ft
Mostly Cloudy 3400 ft
Overcast 4400 ft
Dew Point 43 °F
Humidity 47%
Rainfall -999.00 in
Snow Depth Not available.
UV 2 out of 12
Pollen Not available.
Air Quality Not available.
Flu Activity Not available.
METAR EFSI 300750Z AUTO 16002KT 9999 FEW012 BKN034 OVC044 15/14 Q1012

More Conditions Fewer Conditions

Pressure 29.89 in
Visibility 6.2 miles
Clouds Few 1200 ft
Mostly Cloudy 3400 ft
Overcast 4400 ft
Dew Point 43 °F
Humidity 47%
Rainfall -999.00 in
Snow Depth Not available.
UV 2 out of 12
Pollen Not available.
Air Quality Not available.
Flu Activity Not available.
METAR EFSI 300750Z AUTO 16002KT 9999 FEW012 BKN034 OVC044 15/14 Q1012

More Conditions Fewer Conditions

10-Day Weather Forecast

×

Almanac

Astronomy

Jun. 30, 2015 Rise Set
Actual Time
Civil Twilight
Nautical Twilight
Astronomical Twilight
Moon
Length of Visible Light
Length of Day
Tomorrow will be .
, % of the Moon is Illuminated

Today's Extremes

Country Highs Country Lows

Community

WunderPhotos

Upload Photos

1,833,976 photos uploaded!

WunderBlogs® & News

Nearby

Air Quality

  Air Quality AQ Index Pollutant
Not available.

Snow Depth

Station Depth Elevation

Earthquake Activity

City Distance Mag. Time & Date
Minimum magnitude displayed is 2.5.

Coastal Water Temperatures

Place Temperature

Stations

Nearby Weather Stations

Station Location Temp. Windchill Dew Point Humidity Wind Precip. Elev Updated Type